createdAt,value
2024-02-18T00:01:00.819Z,8.30
2024-02-18T00:03:28.163Z,11.05
2024-02-18T00:05:56.087Z,8.93
2024-02-18T00:08:22.979Z,10.38
2024-02-18T00:10:49.823Z,7.38
2024-02-18T00:13:16.680Z,7.80
2024-02-18T00:15:43.500Z,10.05
2024-02-18T00:18:11.443Z,10.50
2024-02-18T00:20:38.380Z,11.50
2024-02-18T00:23:05.112Z,9.27
2024-02-18T00:25:31.965Z,29.08
2024-02-18T00:27:59.786Z,12.43
2024-02-18T00:30:27.785Z,30.35
2024-02-18T00:32:54.815Z,22.33
2024-02-18T00:35:21.697Z,15.70
2024-02-18T00:37:48.432Z,43.47
2024-02-18T00:40:15.354Z,26.80
2024-02-18T00:42:42.190Z,30.02
2024-02-18T00:45:09.451Z,33.72
2024-02-18T00:50:03.149Z,23.85
2024-02-18T00:52:30.059Z,20.75
2024-02-18T00:54:57.036Z,19.60
2024-02-18T00:57:23.915Z,20.58
2024-02-18T00:59:50.736Z,17.98
2024-02-18T01:02:17.506Z,13.75
2024-02-18T01:04:44.260Z,12.60
2024-02-18T01:07:11.256Z,12.48
2024-02-18T01:09:38.213Z,15.65
2024-02-18T01:12:05.534Z,14.13
2024-02-18T01:16:59.610Z,12.25
2024-02-18T01:19:26.869Z,10.52
2024-02-18T01:21:53.950Z,11.93
2024-02-18T01:24:20.822Z,17.13
2024-02-18T01:26:47.568Z,16.10
2024-02-18T01:29:14.330Z,17.23
2024-02-18T01:31:41.364Z,15.15
2024-02-18T01:34:08.281Z,12.73
2024-02-18T01:36:35.299Z,10.80
2024-02-18T01:39:02.617Z,21.83
2024-02-18T01:43:55.950Z,11.68
2024-02-18T01:46:22.923Z,9.50
2024-02-18T01:48:50.542Z,7.00
2024-02-18T01:51:17.434Z,14.68
2024-02-18T01:53:45.075Z,17.60
2024-02-18T01:56:13.204Z,12.85
2024-02-18T01:58:41.074Z,9.15
2024-02-18T02:01:08.102Z,9.50
2024-02-18T02:03:39.059Z,10.32
2024-02-18T02:06:07.943Z,9.48
2024-02-18T02:08:34.859Z,8.32
2024-02-18T02:11:02.339Z,11.02
2024-02-18T02:13:29.184Z,9.20
2024-02-18T02:15:56.087Z,12.40
2024-02-18T02:18:23.094Z,25.33
2024-02-18T02:20:49.853Z,9.18
2024-02-18T02:23:17.768Z,9.73
2024-02-18T02:25:44.548Z,8.60
2024-02-18T02:28:20.245Z,7.90
2024-02-18T02:30:50.859Z,12.73
2024-02-18T02:33:22.746Z,10.68
2024-02-18T02:35:50.143Z,11.13
2024-02-18T02:38:16.985Z,13.77
2024-02-18T02:40:43.818Z,16.45
2024-02-18T02:43:12.197Z,11.98
2024-02-18T02:45:39.269Z,14.95
2024-02-18T02:48:06.404Z,18.00
2024-02-18T02:50:35.934Z,15.63
2024-02-18T02:53:04.902Z,16.50
2024-02-18T02:57:58.399Z,12.73
2024-02-18T03:00:26.386Z,14.40
2024-02-18T03:02:53.240Z,11.93
2024-02-18T03:05:20.045Z,17.63
2024-02-18T03:07:46.904Z,18.67
2024-02-18T03:10:13.864Z,11.48
2024-02-18T03:12:41.746Z,11.05
2024-02-18T03:15:09.405Z,13.43
2024-02-18T03:17:37.232Z,11.63
2024-02-18T03:20:08.751Z,10.35
2024-02-18T03:22:35.759Z,11.10
2024-02-18T03:25:03.044Z,14.05
2024-02-18T03:27:29.990Z,14.40
2024-02-18T03:29:57.267Z,10.07
2024-02-18T03:34:50.890Z,10.80
2024-02-18T03:37:17.709Z,10.18
2024-02-18T03:39:44.469Z,11.48
2024-02-18T03:42:11.398Z,13.02
2024-02-18T03:44:38.182Z,13.75
2024-02-18T03:47:05.205Z,13.57
2024-02-18T03:49:32.054Z,8.23
2024-02-18T03:51:59.243Z,12.18
2024-02-18T03:54:27.678Z,16.95
2024-02-18T03:56:54.606Z,11.10
2024-02-18T03:59:21.662Z,17.67
2024-02-18T04:01:49.134Z,15.00
2024-02-18T04:04:16.763Z,16.38
2024-02-18T04:06:44.308Z,4.32
2024-02-18T04:09:14.114Z,13.38
2024-02-18T04:11:41.013Z,16.92
2024-02-18T04:14:08.742Z,10.60
2024-02-18T04:16:35.793Z,14.35
2024-02-18T04:19:02.707Z,14.45
2024-02-18T04:21:29.757Z,18.80
2024-02-18T04:23:56.520Z,18.27
2024-02-18T04:26:23.996Z,16.77
2024-02-18T04:28:50.882Z,27.67
2024-02-18T04:31:17.750Z,15.63
2024-02-18T04:33:44.794Z,29.23
2024-02-18T04:36:13.004Z,15.88
2024-02-18T04:38:41.031Z,19.52
2024-02-18T04:41:07.829Z,27.58
2024-02-18T04:43:34.612Z,21.10
2024-02-18T04:46:01.451Z,17.55
2024-02-18T04:48:28.366Z,25.67
2024-02-18T04:50:55.208Z,22.23
2024-02-18T04:53:21.997Z,24.85
2024-02-18T04:55:48.812Z,21.45
2024-02-18T04:58:15.622Z,20.30
2024-02-18T05:00:42.466Z,22.73
2024-02-18T05:03:09.399Z,29.15
2024-02-18T05:05:36.317Z,16.80
2024-02-18T05:08:03.225Z,21.48
2024-02-18T05:10:29.977Z,19.52
2024-02-18T05:12:56.823Z,17.17
2024-02-18T05:15:25.447Z,20.10
2024-02-18T05:17:52.429Z,17.55
2024-02-18T05:20:19.283Z,11.57
2024-02-18T05:22:46.053Z,7.80
2024-02-18T05:25:13.013Z,8.65
2024-02-18T05:27:39.918Z,7.70
2024-02-18T05:30:07.451Z,0.52
2024-02-18T05:32:34.690Z,0.20
2024-02-18T05:37:28.236Z,0.20
2024-02-18T05:39:55.011Z,0.60
2024-02-18T05:42:21.837Z,0.20
2024-02-18T05:44:48.720Z,0.20
2024-02-18T05:47:15.759Z,0.30
2024-02-18T05:49:44.542Z,0.20
2024-02-18T05:52:12.219Z,1.95
2024-02-18T05:57:07.186Z,0.20
2024-02-18T05:59:34.350Z,0.20
2024-02-18T06:02:01.240Z,0.20
2024-02-18T06:04:28.155Z,0.20
2024-02-18T06:06:55.074Z,0.20
2024-02-18T06:09:22.129Z,0.20
2024-02-18T06:11:49.512Z,0.20
2024-02-18T06:14:16.586Z,0.30
2024-02-18T06:16:43.472Z,0.75
2024-02-18T06:19:14.558Z,1.08
2024-02-18T06:21:43.904Z,0.50
2024-02-18T06:24:10.753Z,0.40
2024-02-18T06:26:44.214Z,1.08
2024-02-18T06:29:10.982Z,0.52
2024-02-18T06:31:37.761Z,0.15
2024-02-18T06:34:04.651Z,0.45
2024-02-18T06:36:37.142Z,0.20
2024-02-18T06:39:04.606Z,0.20
2024-02-18T06:43:58.619Z,0.45
2024-02-18T06:46:25.470Z,0.20
2024-02-18T06:48:53.080Z,0.30
2024-02-18T06:51:20.037Z,0.55
2024-02-18T06:53:46.795Z,0.85
2024-02-18T06:56:13.524Z,0.50
2024-02-18T06:58:40.290Z,0.20
2024-02-18T07:01:07.157Z,0.43
2024-02-18T07:03:34.334Z,0.20
2024-02-18T07:06:01.454Z,0.25
2024-02-18T07:10:54.943Z,0.55
2024-02-18T07:13:21.713Z,0.30
2024-02-18T07:15:48.438Z,0.30
2024-02-18T07:18:15.344Z,1.38
2024-02-18T07:20:42.262Z,1.05
2024-02-18T07:23:08.994Z,0.50
2024-02-18T07:25:35.754Z,0.73
2024-02-18T07:28:02.669Z,1.33
2024-02-18T07:30:29.590Z,0.45
2024-02-18T07:32:56.458Z,0.45
2024-02-18T07:35:23.533Z,1.10
2024-02-18T07:37:50.394Z,0.30
2024-02-18T07:40:17.474Z,1.20
2024-02-18T07:42:47.529Z,0.20
2024-02-18T07:45:14.311Z,0.20
2024-02-18T07:47:41.456Z,0.30
2024-02-18T07:50:09.017Z,0.50
2024-02-18T07:52:36.054Z,1.10
2024-02-18T07:55:03.995Z,0.15
2024-02-18T07:57:30.862Z,0.20
2024-02-18T07:59:58.078Z,0.20
2024-02-18T08:02:28.238Z,0.47
2024-02-18T08:04:55.260Z,0.50
2024-02-18T08:07:24.806Z,0.85
2024-02-18T08:09:52.287Z,0.20
2024-02-18T08:12:19.145Z,0.30
2024-02-18T08:14:45.949Z,0.25
2024-02-18T08:17:12.778Z,0.63
2024-02-18T08:19:39.607Z,0.75
2024-02-18T08:22:06.459Z,0.30
2024-02-18T08:24:33.460Z,0.80
2024-02-18T08:27:01.474Z,0.40
2024-02-18T08:29:29.004Z,0.47
2024-02-18T08:31:55.899Z,0.45
2024-02-18T08:34:23.715Z,0.20
2024-02-18T08:36:50.652Z,1.00
2024-02-18T08:39:17.464Z,0.20
2024-02-18T08:41:44.207Z,0.13
2024-02-18T08:44:11.106Z,0.20
2024-02-18T08:46:38.737Z,0.15
2024-02-18T08:49:05.753Z,1.00
2024-02-18T08:51:32.733Z,0.20
2024-02-18T08:54:01.516Z,0.40
2024-02-18T08:56:28.380Z,1.75
2024-02-18T08:58:55.865Z,0.20
2024-02-18T09:01:24.520Z,0.75
2024-02-18T09:03:51.982Z,0.20
2024-02-18T09:06:19.460Z,0.45
2024-02-18T09:11:13.432Z,0.73
2024-02-18T09:13:40.292Z,0.20
2024-02-18T09:16:07.905Z,0.20
2024-02-18T09:18:35.691Z,0.20
2024-02-18T09:21:06.528Z,0.10
2024-02-18T09:23:33.566Z,0.50
2024-02-18T09:26:00.680Z,0.47
2024-02-18T09:30:56.679Z,0.75
2024-02-18T09:33:24.242Z,0.20
2024-02-18T09:35:51.549Z,0.10
2024-02-18T09:40:45.384Z,0.28
2024-02-18T09:43:14.429Z,0.20
2024-02-18T09:45:44.959Z,0.10
2024-02-18T09:48:14.716Z,0.63
2024-02-18T09:50:41.895Z,0.20
2024-02-18T09:55:38.569Z,0.30
2024-02-18T09:58:05.443Z,0.15
2024-02-18T10:00:32.659Z,0.98
2024-02-18T10:02:59.564Z,0.20
2024-02-18T10:05:26.416Z,0.13
2024-02-18T10:08:00.445Z,0.10
2024-02-18T10:10:27.232Z,0.30
2024-02-18T10:12:54.341Z,0.20
2024-02-18T10:15:21.188Z,0.43
2024-02-18T10:17:47.987Z,0.40
2024-02-18T10:20:16.013Z,0.10
2024-02-18T10:22:43.594Z,0.38
2024-02-18T10:25:11.558Z,0.10
2024-02-18T10:27:40.092Z,11.68
2024-02-18T10:30:11.533Z,11.57
2024-02-18T10:32:38.400Z,11.23
2024-02-18T10:35:09.844Z,12.07
2024-02-18T10:37:38.567Z,10.60
2024-02-18T10:40:25.190Z,11.48
2024-02-18T10:42:53.342Z,19.90
2024-02-18T10:45:22.551Z,34.78
2024-02-18T10:47:54.885Z,10.75
2024-02-18T10:50:27.465Z,9.85
2024-02-18T10:53:32.582Z,10.05
2024-02-18T10:56:06.780Z,9.65
2024-02-18T10:59:08.898Z,9.82
2024-02-18T11:01:42.230Z,9.57
2024-02-18T11:04:11.054Z,7.90
2024-02-18T11:06:39.069Z,8.25
2024-02-18T11:09:12.695Z,6.72
2024-02-18T11:11:42.442Z,5.85
2024-02-18T11:14:12.450Z,3.90
2024-02-18T11:16:43.273Z,5.47
2024-02-18T11:19:11.581Z,3.22
2024-02-18T11:21:39.460Z,3.10
2024-02-18T11:24:08.618Z,1.95
2024-02-18T11:26:35.486Z,2.47
2024-02-18T11:29:03.383Z,2.17
2024-02-18T11:31:31.479Z,2.80
2024-02-18T11:33:58.593Z,1.98
2024-02-18T11:36:28.285Z,3.22
2024-02-18T11:38:58.730Z,2.75
2024-02-18T11:41:33.994Z,2.28
2024-02-18T11:44:11.408Z,2.92
2024-02-18T11:46:44.872Z,2.20
2024-02-18T11:49:12.744Z,3.15
2024-02-18T11:51:40.946Z,3.25
2024-02-18T11:54:07.698Z,2.90
2024-02-18T11:56:34.536Z,3.30
2024-02-18T11:59:01.280Z,2.50
2024-02-18T12:01:28.891Z,2.15
2024-02-18T12:03:56.755Z,2.70
2024-02-18T12:06:27.152Z,3.00
2024-02-18T12:08:54.095Z,2.42
2024-02-18T12:11:21.005Z,2.15
2024-02-18T12:16:20.154Z,2.15
2024-02-18T12:18:47.194Z,9.63
2024-02-18T12:21:18.291Z,12.85
2024-02-18T12:23:45.090Z,6.13
2024-02-18T12:26:13.975Z,11.32
2024-02-18T12:28:41.103Z,2.88
2024-02-18T12:31:08.438Z,2.90
2024-02-18T12:33:35.618Z,4.35
2024-02-18T12:36:02.724Z,3.42
2024-02-18T12:40:58.884Z,3.25
2024-02-18T12:44:10.486Z,3.50
2024-02-18T12:46:16.421Z,3.72
2024-02-18T12:48:43.625Z,5.18
2024-02-18T12:51:16.163Z,4.80
2024-02-18T12:53:44.263Z,3.60
2024-02-18T12:56:13.075Z,4.07
2024-02-18T12:58:40.794Z,3.75
2024-02-18T13:01:11.583Z,3.08
2024-02-18T13:03:39.970Z,3.60
2024-02-18T13:06:08.151Z,3.00
2024-02-18T13:08:35.316Z,3.15
2024-02-18T13:13:29.513Z,2.13
2024-02-18T13:15:56.654Z,3.08
2024-02-18T13:20:50.266Z,4.85
2024-02-18T13:23:17.055Z,2.78
2024-02-18T13:25:44.072Z,4.90
2024-02-18T13:30:40.172Z,3.38
2024-02-18T13:33:07.038Z,3.33
2024-02-18T13:35:34.702Z,3.38
2024-02-18T13:38:01.866Z,3.00
2024-02-18T13:42:57.915Z,3.33
2024-02-18T13:45:25.571Z,3.67
2024-02-18T13:47:58.767Z,3.25
2024-02-18T13:50:28.210Z,3.13
2024-02-18T13:52:55.195Z,2.80
2024-02-18T13:55:22.102Z,2.95
2024-02-18T14:00:15.994Z,3.13
2024-02-18T14:02:42.981Z,2.88
2024-02-18T14:05:17.368Z,2.40
2024-02-18T14:07:44.177Z,2.50
2024-02-18T14:10:12.634Z,2.95
2024-02-18T14:12:39.552Z,2.30
2024-02-18T14:15:07.463Z,2.58
2024-02-18T14:17:34.202Z,4.03
2024-02-18T14:20:02.251Z,3.72
2024-02-18T14:22:30.554Z,5.40
2024-02-18T14:24:59.036Z,3.15
2024-02-18T14:27:26.029Z,4.10
2024-02-18T14:32:20.261Z,2.80
2024-02-18T14:34:47.069Z,2.58
2024-02-18T14:37:13.886Z,4.20
2024-02-18T14:39:41.056Z,4.05
2024-02-18T14:42:07.777Z,3.35
2024-02-18T14:44:34.512Z,3.00
2024-02-18T14:47:02.685Z,2.17
2024-02-18T14:49:35.834Z,4.10
2024-02-18T14:52:08.783Z,7.80
2024-02-18T14:54:35.601Z,5.93
2024-02-18T14:57:02.337Z,3.88
2024-02-18T14:59:29.084Z,3.47
2024-02-18T15:01:55.909Z,3.75
2024-02-18T15:04:22.700Z,4.05
2024-02-18T15:06:50.631Z,3.42
2024-02-18T15:09:20.745Z,3.28
2024-02-18T15:11:47.512Z,3.42
2024-02-18T15:14:14.240Z,2.53
2024-02-18T15:16:40.962Z,3.28
2024-02-18T15:19:08.018Z,3.58
2024-02-18T15:21:35.044Z,2.90
2024-02-18T15:26:28.550Z,3.95
2024-02-18T15:28:55.416Z,3.63
2024-02-18T15:31:22.310Z,3.20
2024-02-18T15:33:50.153Z,3.45
2024-02-18T15:36:16.996Z,3.55
2024-02-18T15:38:45.443Z,3.70
2024-02-18T15:41:12.227Z,3.30
2024-02-18T15:43:39.536Z,3.13
2024-02-18T15:46:06.360Z,3.45
2024-02-18T15:48:33.488Z,3.45
2024-02-18T15:51:00.402Z,3.38
2024-02-18T15:53:27.577Z,19.13
2024-02-18T15:56:01.915Z,4.00
2024-02-18T15:58:30.832Z,3.70
2024-02-18T16:00:57.784Z,4.20
2024-02-18T16:05:51.605Z,3.88
2024-02-18T16:08:19.697Z,4.05
2024-02-18T16:10:47.126Z,3.97
2024-02-18T16:13:14.306Z,4.88
2024-02-18T16:15:41.301Z,4.28
2024-02-18T16:18:09.022Z,4.03
2024-02-18T16:20:35.799Z,4.18
2024-02-18T16:23:04.101Z,4.00
2024-02-18T16:25:32.043Z,4.25
2024-02-18T16:27:58.812Z,4.28
2024-02-18T16:30:25.548Z,3.85
2024-02-18T16:32:52.335Z,3.95
2024-02-18T16:35:19.578Z,4.25
2024-02-18T16:37:46.618Z,3.40
2024-02-18T16:40:13.540Z,4.10
2024-02-18T16:42:40.374Z,4.32
2024-02-18T16:45:08.391Z,4.43
2024-02-18T16:47:36.243Z,3.72
2024-02-18T16:52:29.996Z,81.38
2024-02-18T16:54:56.848Z,5.45
2024-02-18T16:57:24.316Z,4.30
2024-02-18T16:59:51.524Z,3.95
2024-02-18T17:04:45.370Z,4.47
2024-02-18T17:07:14.658Z,5.10
2024-02-18T17:09:41.500Z,4.72
2024-02-18T17:12:09.214Z,5.15
2024-02-18T17:14:38.274Z,4.60
2024-02-18T17:17:05.478Z,4.57
2024-02-18T17:21:59.773Z,3.97
2024-02-18T17:26:59.567Z,3.40
2024-02-18T17:29:26.375Z,3.85
2024-02-18T17:31:53.316Z,4.63
2024-02-18T17:34:25.803Z,4.93
2024-02-18T17:36:53.506Z,4.45
2024-02-18T17:39:21.122Z,4.53
2024-02-18T17:41:47.936Z,4.90
2024-02-18T17:44:14.777Z,4.38
2024-02-18T17:46:41.876Z,4.95
2024-02-18T17:51:37.078Z,6.80
2024-02-18T17:54:04.438Z,4.97
2024-02-18T17:56:35.075Z,6.03
2024-02-18T17:59:02.452Z,5.03
2024-02-18T18:03:56.105Z,7.53
2024-02-18T18:06:22.875Z,6.32
2024-02-18T18:08:49.617Z,5.47
2024-02-18T18:11:16.453Z,6.05
2024-02-18T18:13:43.843Z,8.32
2024-02-18T18:16:10.704Z,5.35
2024-02-18T18:18:37.638Z,4.63
2024-02-18T18:21:08.499Z,5.78
2024-02-18T18:23:35.591Z,7.50
2024-02-18T18:26:02.426Z,8.65
2024-02-18T18:28:29.257Z,7.32
2024-02-18T18:30:56.134Z,8.18
2024-02-18T18:33:23.069Z,7.15
2024-02-18T18:35:51.192Z,7.60
2024-02-18T18:38:23.513Z,7.32
2024-02-18T18:40:50.365Z,7.30
2024-02-18T18:43:17.200Z,7.70
2024-02-18T18:45:44.193Z,8.30
2024-02-18T18:48:11.022Z,6.47
2024-02-18T18:50:37.835Z,7.10
2024-02-18T18:53:04.825Z,5.60
2024-02-18T18:55:31.581Z,5.10
2024-02-18T18:58:00.187Z,5.60
2024-02-18T19:00:32.202Z,5.05
2024-02-18T19:02:59.215Z,4.75
2024-02-18T19:05:26.291Z,4.80
2024-02-18T19:10:20.317Z,6.20
2024-02-18T19:12:47.701Z,7.22
2024-02-18T19:15:14.610Z,6.95
2024-02-18T19:17:41.507Z,5.20
2024-02-18T19:20:09.094Z,4.72
2024-02-18T19:22:38.923Z,5.05
2024-02-18T19:25:06.766Z,3.95
2024-02-18T19:27:33.562Z,3.80
2024-02-18T19:30:02.055Z,11.65
2024-02-18T19:32:29.092Z,5.93
2024-02-18T19:34:56.142Z,5.07
2024-02-18T19:39:49.823Z,5.30
2024-02-18T19:42:16.588Z,5.63
2024-02-18T19:44:43.526Z,5.68
2024-02-18T19:47:10.327Z,6.30
2024-02-18T19:49:37.164Z,6.45
2024-02-18T19:52:04.304Z,7.68
2024-02-18T19:54:31.717Z,8.18
2024-02-18T19:56:58.882Z,7.07
2024-02-18T19:59:27.641Z,6.57
2024-02-18T20:01:55.845Z,6.25
2024-02-18T20:04:22.947Z,7.05
2024-02-18T20:06:50.754Z,8.25
2024-02-18T20:09:20.748Z,5.85
2024-02-18T20:11:51.776Z,7.30
2024-02-18T20:14:21.685Z,6.63
2024-02-18T20:16:48.413Z,6.63
2024-02-18T20:19:16.268Z,6.90
2024-02-18T20:21:43.595Z,7.28
2024-02-18T20:24:10.425Z,7.13
2024-02-18T20:26:37.784Z,4.72
2024-02-18T20:29:04.658Z,6.20
2024-02-18T20:31:31.416Z,5.57
2024-02-18T20:33:58.258Z,5.82
2024-02-18T20:36:25.165Z,5.95
2024-02-18T20:38:54.552Z,6.20
2024-02-18T20:41:22.695Z,3.83
2024-02-18T20:43:49.671Z,4.13
2024-02-18T20:46:19.720Z,5.05
2024-02-18T20:48:48.219Z,6.20
2024-02-18T20:51:16.704Z,7.78
2024-02-18T20:53:43.819Z,7.30
2024-02-18T20:56:10.545Z,8.27
2024-02-18T20:58:40.200Z,6.30
2024-02-18T21:01:08.541Z,6.15
2024-02-18T21:03:35.442Z,6.60
2024-02-18T21:06:02.932Z,6.65
2024-02-18T21:08:30.840Z,5.90
2024-02-18T21:10:57.906Z,8.38
2024-02-18T21:13:25.119Z,9.23
2024-02-18T21:18:19.354Z,7.65
2024-02-18T21:23:13.400Z,7.60
2024-02-18T21:25:40.328Z,8.40
2024-02-18T21:28:07.378Z,8.38
2024-02-18T21:30:34.275Z,9.10
2024-02-18T21:33:01.312Z,9.15
2024-02-18T21:35:28.190Z,8.55
2024-02-18T21:37:54.959Z,10.32
2024-02-18T21:40:21.789Z,8.23
2024-02-18T21:42:48.617Z,9.38
2024-02-18T21:45:15.542Z,7.32
2024-02-18T21:47:42.440Z,7.43
2024-02-18T21:50:15.994Z,6.60
2024-02-18T21:52:42.883Z,7.40
2024-02-18T21:55:09.776Z,6.20
2024-02-18T21:57:36.868Z,7.30
2024-02-18T22:00:04.642Z,7.35
2024-02-18T22:02:32.137Z,7.22
2024-02-18T22:04:59.213Z,6.35
2024-02-18T22:07:26.067Z,6.43
2024-02-18T22:09:52.898Z,4.35
2024-02-18T22:12:19.673Z,6.38
2024-02-18T22:14:46.429Z,5.82
2024-02-18T22:17:13.188Z,6.07
2024-02-18T22:19:40.170Z,6.68
2024-02-18T22:22:07.090Z,8.32
2024-02-18T22:24:33.907Z,8.95
2024-02-18T22:27:00.753Z,8.15
2024-02-18T22:29:27.509Z,7.03
2024-02-18T22:31:54.373Z,6.88
2024-02-18T22:34:21.286Z,7.97
2024-02-18T22:36:48.278Z,8.50
2024-02-18T22:39:15.060Z,7.28
2024-02-18T22:41:45.135Z,7.88
2024-02-18T22:44:12.970Z,8.52
2024-02-18T22:46:39.756Z,8.23
2024-02-18T22:49:06.572Z,9.40
2024-02-18T22:51:33.626Z,9.48
2024-02-18T22:54:00.406Z,7.50
2024-02-18T22:56:27.212Z,8.65
2024-02-18T22:58:53.949Z,9.55
2024-02-18T23:01:22.173Z,7.45
2024-02-18T23:03:49.100Z,9.63
2024-02-18T23:06:15.972Z,9.23
2024-02-18T23:08:42.820Z,11.25
2024-02-18T23:11:09.689Z,9.30
2024-02-18T23:13:36.534Z,7.20
2024-02-18T23:16:03.553Z,7.43
2024-02-18T23:18:30.491Z,7.38
2024-02-18T23:20:57.298Z,7.65
2024-02-18T23:23:24.111Z,9.75
2024-02-18T23:25:50.894Z,10.25
2024-02-18T23:28:17.876Z,9.57
2024-02-18T23:33:11.566Z,7.53
2024-02-18T23:35:38.435Z,7.32
2024-02-18T23:38:05.587Z,8.05
2024-02-18T23:43:00.275Z,8.55
2024-02-18T23:45:27.362Z,7.35
2024-02-18T23:47:54.170Z,8.13
2024-02-18T23:50:21.039Z,10.15
2024-02-18T23:52:47.801Z,9.30
2024-02-18T23:55:14.626Z,9.27
2024-02-18T23:57:41.462Z,9.68
